createdAt,value
2018-12-18T00:00:19.776Z,21.77
2018-12-18T00:02:50.379Z,22.50
2018-12-18T00:05:24.881Z,21.43
2018-12-18T00:07:53.214Z,22.10
2018-12-18T00:10:21.746Z,22.13
2018-12-18T00:12:50.040Z,21.33
2018-12-18T00:15:18.402Z,21.43
2018-12-18T00:17:46.922Z,21.33
2018-12-18T00:20:16.108Z,21.10
2018-12-18T00:22:44.535Z,19.77
2018-12-18T00:25:13.050Z,21.23
2018-12-18T00:27:41.649Z,20.07
2018-12-18T00:30:10.062Z,21.53
2018-12-18T00:32:38.497Z,19.90
2018-12-18T00:35:06.784Z,19.40
2018-12-18T00:37:35.222Z,20.50
2018-12-18T00:40:04.106Z,20.23
2018-12-18T00:42:32.729Z,19.43
2018-12-18T00:45:01.205Z,19.43
2018-12-18T00:47:29.602Z,19.83
2018-12-18T00:49:58.062Z,19.97
2018-12-18T00:52:26.446Z,19.20
2018-12-18T00:54:54.841Z,19.47
2018-12-18T00:57:23.170Z,19.37
2018-12-18T00:59:51.378Z,18.40
2018-12-18T01:02:20.020Z,18.07
2018-12-18T01:04:48.459Z,18.03
2018-12-18T01:07:16.641Z,18.77
2018-12-18T01:09:44.905Z,18.70
2018-12-18T01:12:13.205Z,17.87
2018-12-18T01:14:41.623Z,17.83
2018-12-18T01:17:10.142Z,17.50
2018-12-18T01:19:39.155Z,17.53
2018-12-18T01:22:07.392Z,17.97
2018-12-18T01:24:35.769Z,18.17
2018-12-18T01:27:03.990Z,17.20
2018-12-18T01:29:32.273Z,17.63
2018-12-18T01:32:00.703Z,17.83
2018-12-18T01:34:29.004Z,17.23
2018-12-18T01:36:57.486Z,17.63
2018-12-18T01:39:25.747Z,16.37
2018-12-18T01:41:54.076Z,17.30
2018-12-18T01:44:22.391Z,17.50
2018-12-18T01:46:50.620Z,16.53
2018-12-18T01:49:19.007Z,16.50
2018-12-18T01:51:47.168Z,15.83
2018-12-18T01:54:15.751Z,16.37
2018-12-18T01:56:43.991Z,16.57
2018-12-18T01:59:12.598Z,17.00
2018-12-18T02:01:41.460Z,15.80
2018-12-18T02:04:09.773Z,16.03
2018-12-18T02:06:38.326Z,15.47
2018-12-18T02:09:07.401Z,15.33
2018-12-18T02:11:35.713Z,15.87
2018-12-18T02:14:04.280Z,15.77
2018-12-18T02:16:33.060Z,16.80
2018-12-18T02:19:01.398Z,16.43
2018-12-18T02:21:29.795Z,15.67
2018-12-18T02:23:58.032Z,15.15
2018-12-18T02:26:26.375Z,16.13
2018-12-18T02:28:54.836Z,15.73
2018-12-18T02:31:23.033Z,16.03
2018-12-18T02:33:51.452Z,15.73
2018-12-18T02:36:19.866Z,15.87
2018-12-18T02:38:48.694Z,15.00
2018-12-18T02:41:17.240Z,15.57
2018-12-18T02:43:45.701Z,14.97
2018-12-18T02:46:14.181Z,14.83
2018-12-18T02:53:36.586Z,14.80
2018-12-18T02:56:05.681Z,15.10
2018-12-18T02:58:33.876Z,15.47
2018-12-18T03:01:02.276Z,13.57
2018-12-18T03:03:30.611Z,14.53
2018-12-18T03:05:58.805Z,13.20
2018-12-18T03:08:27.091Z,13.37
2018-12-18T03:10:55.713Z,13.23
2018-12-18T03:13:24.090Z,12.73
2018-12-18T03:15:52.434Z,13.97
2018-12-18T03:18:20.702Z,12.83
2018-12-18T03:20:48.906Z,12.27
2018-12-18T03:23:17.169Z,12.30
2018-12-18T03:25:45.434Z,11.87
2018-12-18T03:28:13.682Z,12.10
2018-12-18T03:30:41.958Z,11.80
2018-12-18T03:33:10.731Z,11.23
2018-12-18T03:35:39.194Z,11.93
2018-12-18T03:38:07.489Z,11.93
2018-12-18T03:40:35.909Z,12.73
2018-12-18T03:43:04.264Z,12.30
2018-12-18T03:45:32.907Z,11.80
2018-12-18T03:48:01.130Z,11.97
2018-12-18T03:50:29.694Z,11.70
2018-12-18T03:52:58.062Z,12.50
2018-12-18T03:55:26.302Z,11.13
2018-12-18T03:57:54.713Z,11.20
2018-12-18T04:00:22.953Z,11.37
2018-12-18T04:02:51.279Z,10.73
2018-12-18T04:05:19.683Z,11.47
2018-12-18T04:07:47.850Z,11.23
2018-12-18T04:10:16.805Z,11.20
2018-12-18T04:12:45.208Z,10.93
2018-12-18T04:15:13.444Z,10.77
2018-12-18T04:17:41.633Z,10.57
2018-12-18T04:20:10.036Z,10.63
2018-12-18T04:30:57.925Z,13.03
2018-12-18T04:33:26.123Z,13.83
2018-12-18T04:35:54.604Z,13.50
2018-12-18T04:38:22.967Z,14.07
2018-12-18T04:40:51.577Z,13.37
2018-12-18T04:43:20.036Z,13.57
2018-12-18T04:45:48.338Z,13.20
2018-12-18T04:48:16.971Z,12.40
2018-12-18T04:50:45.474Z,12.57
2018-12-18T04:53:13.743Z,12.23
2018-12-18T04:55:42.184Z,12.90
2018-12-18T04:58:10.385Z,12.50
2018-12-18T05:00:38.813Z,12.43
2018-12-18T05:03:06.993Z,11.17
2018-12-18T05:05:35.298Z,12.00
2018-12-18T05:08:04.334Z,11.53
2018-12-18T05:10:32.574Z,11.07
2018-12-18T05:13:00.912Z,11.83
2018-12-18T05:15:29.249Z,11.97
2018-12-18T05:17:57.695Z,11.80
2018-12-18T05:20:25.907Z,10.87
2018-12-18T05:22:54.145Z,11.30
2018-12-18T05:25:22.406Z,11.93
2018-12-18T05:27:50.756Z,11.83
2018-12-18T05:30:19.009Z,11.13
2018-12-18T05:32:47.462Z,11.83
2018-12-18T05:35:16.259Z,12.30
2018-12-18T05:37:44.601Z,12.40
2018-12-18T05:40:13.480Z,11.73
2018-12-18T05:42:42.102Z,12.20
2018-12-18T05:45:10.645Z,12.73
2018-12-18T05:47:38.892Z,11.80
2018-12-18T05:50:07.193Z,11.93
2018-12-18T05:52:35.453Z,12.73
2018-12-18T05:55:03.790Z,11.47
2018-12-18T05:57:32.159Z,11.67
2018-12-18T06:00:00.454Z,11.80
2018-12-18T06:02:28.660Z,12.13
2018-12-18T06:05:03.048Z,12.67
2018-12-18T06:07:27.578Z,12.37
2018-12-18T06:09:55.853Z,11.13
2018-12-18T06:12:24.093Z,10.13
2018-12-18T06:14:52.874Z,10.53
2018-12-18T06:17:21.079Z,9.50
2018-12-18T06:19:49.438Z,9.03
2018-12-18T06:22:17.635Z,9.30
2018-12-18T06:24:46.069Z,9.30
2018-12-18T06:27:14.566Z,8.80
2018-12-18T06:29:42.820Z,8.23
2018-12-18T06:32:11.273Z,9.03
2018-12-18T06:34:39.851Z,8.70
2018-12-18T06:37:08.172Z,8.20
2018-12-18T06:39:36.626Z,8.33
2018-12-18T06:42:04.826Z,8.03
2018-12-18T06:44:33.252Z,8.63
2018-12-18T06:47:01.649Z,8.80
2018-12-18T06:49:29.944Z,7.80
2018-12-18T06:51:58.163Z,8.13
2018-12-18T06:54:26.561Z,7.90
2018-12-18T06:56:54.793Z,8.03
2018-12-18T06:59:23.140Z,7.83
2018-12-18T07:01:51.460Z,7.73
2018-12-18T07:04:19.742Z,6.77
2018-12-18T07:06:47.994Z,7.03
2018-12-18T07:09:16.349Z,6.73
2018-12-18T07:11:44.818Z,6.63
2018-12-18T07:14:13.126Z,7.90
2018-12-18T07:16:41.335Z,6.67
2018-12-18T07:19:09.578Z,6.30
2018-12-18T07:21:38.323Z,6.77
2018-12-18T07:24:06.637Z,6.80
2018-12-18T07:26:35.221Z,6.33
2018-12-18T07:29:03.561Z,6.27
2018-12-18T07:31:33.097Z,7.97
2018-12-18T07:34:02.175Z,7.23
2018-12-18T07:36:30.724Z,6.83
2018-12-18T07:38:59.366Z,7.30
2018-12-18T07:41:27.748Z,6.43
2018-12-18T07:43:56.104Z,6.60
2018-12-18T07:46:24.599Z,6.40
2018-12-18T07:48:52.932Z,6.57
2018-12-18T07:51:21.403Z,6.63
2018-12-18T07:53:50.140Z,6.77
2018-12-18T07:56:18.566Z,6.00
2018-12-18T07:58:46.969Z,6.97
2018-12-18T08:01:15.431Z,6.83
2018-12-18T08:03:43.997Z,6.47
2018-12-18T08:06:13.491Z,7.03
2018-12-18T08:08:42.389Z,6.83
2018-12-18T08:11:11.079Z,6.70
2018-12-18T08:13:40.196Z,6.43
2018-12-18T08:16:08.454Z,6.37
2018-12-18T08:18:36.750Z,6.00
2018-12-18T08:21:05.206Z,6.30
2018-12-18T08:23:33.508Z,5.70
2018-12-18T08:26:01.710Z,6.27
2018-12-18T08:28:30.090Z,5.30
2018-12-18T08:30:58.407Z,5.65
2018-12-18T08:33:26.844Z,5.80
2018-12-18T08:35:55.020Z,5.67
2018-12-18T08:38:23.377Z,5.10
2018-12-18T08:40:52.305Z,5.33
2018-12-18T08:43:20.618Z,5.00
2018-12-18T08:45:49.314Z,5.20
2018-12-18T08:48:17.570Z,5.10
2018-12-18T08:50:45.769Z,4.77
2018-12-18T08:53:14.020Z,5.37
2018-12-18T08:55:42.586Z,4.60
2018-12-18T08:58:10.932Z,5.03
2018-12-18T09:00:39.334Z,5.10
2018-12-18T09:03:08.307Z,4.97
2018-12-18T09:05:42.975Z,5.20
2018-12-18T09:08:07.060Z,5.20
2018-12-18T09:10:39.758Z,5.40
2018-12-18T09:13:06.113Z,5.13
2018-12-18T09:15:39.851Z,5.40
2018-12-18T09:18:08.366Z,5.43
2018-12-18T09:20:36.693Z,5.13
2018-12-18T09:23:05.102Z,5.07
2018-12-18T09:25:33.474Z,5.03
2018-12-18T09:28:01.686Z,5.10
2018-12-18T09:30:30.065Z,5.43
2018-12-18T09:32:58.548Z,4.93
2018-12-18T09:35:26.748Z,4.80
2018-12-18T09:38:00.418Z,5.47
2018-12-18T09:40:33.239Z,5.27
2018-12-18T09:43:06.877Z,4.80
2018-12-18T09:45:35.466Z,5.23
2018-12-18T09:48:03.773Z,4.00
2018-12-18T09:50:32.176Z,5.00
2018-12-18T09:53:00.490Z,4.80
2018-12-18T09:55:29.109Z,4.37
2018-12-18T09:57:57.536Z,4.17
2018-12-18T10:00:26.071Z,4.67
2018-12-18T10:02:54.301Z,4.27
2018-12-18T10:05:22.803Z,4.00
2018-12-18T10:07:51.347Z,4.13
2018-12-18T10:10:19.709Z,4.23
2018-12-18T10:12:55.279Z,3.87
2018-12-18T10:15:23.733Z,3.73
2018-12-18T10:17:52.073Z,3.53
2018-12-18T10:20:20.414Z,3.83
2018-12-18T10:22:48.688Z,3.23
2018-12-18T10:25:17.022Z,3.87
2018-12-18T10:27:45.329Z,3.00
2018-12-18T10:30:13.597Z,4.00
2018-12-18T10:32:41.892Z,3.43
2018-12-18T10:35:10.178Z,3.40
2018-12-18T10:37:38.441Z,2.83
2018-12-18T10:40:07.915Z,3.20
2018-12-18T10:42:36.104Z,3.33
2018-12-18T10:45:05.059Z,3.20
2018-12-18T10:47:33.324Z,2.90
2018-12-18T10:50:01.924Z,3.07
2018-12-18T10:52:30.377Z,3.33
2018-12-18T10:54:58.613Z,2.83
2018-12-18T10:57:26.912Z,2.87
2018-12-18T10:59:55.192Z,3.17
2018-12-18T11:02:23.352Z,3.20
2018-12-18T11:04:51.838Z,3.17
2018-12-18T11:07:20.065Z,2.97
2018-12-18T11:09:48.454Z,2.80
2018-12-18T11:12:20.937Z,2.73
2018-12-18T11:14:49.164Z,3.10
2018-12-18T11:17:17.508Z,2.70
2018-12-18T11:19:46.045Z,3.20
2018-12-18T11:22:14.582Z,2.80
2018-12-18T11:24:42.849Z,2.90
2018-12-18T11:27:11.165Z,2.77
2018-12-18T11:29:39.343Z,2.90
2018-12-18T11:32:07.570Z,3.40
2018-12-18T11:34:35.776Z,2.77
2018-12-18T11:37:04.016Z,2.53
2018-12-18T11:39:32.453Z,2.60
2018-12-18T11:42:01.121Z,2.90
2018-12-18T11:44:34.476Z,3.27
2018-12-18T11:47:02.751Z,2.70
2018-12-18T11:49:30.986Z,2.90
2018-12-18T11:51:59.234Z,2.80
2018-12-18T11:54:27.605Z,2.57
2018-12-18T11:56:55.803Z,2.63
2018-12-18T11:59:29.054Z,2.63
2018-12-18T12:01:57.290Z,2.53
2018-12-18T12:04:25.590Z,2.40
2018-12-18T12:06:53.950Z,2.33
2018-12-18T12:09:22.305Z,2.37
2018-12-18T12:11:50.836Z,2.70
2018-12-18T12:14:19.185Z,2.10
2018-12-18T12:16:47.396Z,2.40
2018-12-18T12:19:15.841Z,2.37
2018-12-18T12:21:44.069Z,2.37
2018-12-18T12:24:12.314Z,2.20
2018-12-18T12:26:44.798Z,2.27
2018-12-18T12:29:12.994Z,2.10
2018-12-18T12:31:41.386Z,2.57
2018-12-18T12:34:09.626Z,2.60
2018-12-18T12:36:37.827Z,2.27
2018-12-18T12:39:08.928Z,2.27
2018-12-18T12:41:37.193Z,2.30
2018-12-18T12:44:05.617Z,2.30
2018-12-18T12:46:34.171Z,2.13
2018-12-18T12:49:08.290Z,2.60
2018-12-18T12:51:36.557Z,2.30
2018-12-18T12:54:04.961Z,2.20
2018-12-18T12:56:33.920Z,2.23
2018-12-18T12:59:02.261Z,2.10
2018-12-18T13:01:30.571Z,2.40
2018-12-18T13:03:59.553Z,2.80
2018-12-18T13:06:27.964Z,2.03
2018-12-18T13:08:56.211Z,2.50
2018-12-18T13:11:25.965Z,2.47
2018-12-18T13:13:55.150Z,2.20
2018-12-18T13:16:28.550Z,2.20
2018-12-18T13:19:01.436Z,2.40
2018-12-18T13:21:31.077Z,1.93
2018-12-18T13:23:59.439Z,2.23
2018-12-18T13:26:28.423Z,2.00
2018-12-18T13:28:56.798Z,2.10
2018-12-18T13:31:25.154Z,1.87
2018-12-18T13:33:53.693Z,2.20
2018-12-18T13:36:23.132Z,2.00
2018-12-18T13:38:51.405Z,1.90
2018-12-18T13:41:19.861Z,2.80
2018-12-18T13:43:48.243Z,2.20
2018-12-18T13:46:16.528Z,2.13
2018-12-18T13:48:44.861Z,2.30
2018-12-18T13:51:13.558Z,2.00
2018-12-18T13:53:42.233Z,2.20
2018-12-18T13:56:10.554Z,1.90
2018-12-18T13:58:38.780Z,2.73
2018-12-18T14:01:06.969Z,2.13
2018-12-18T14:03:35.347Z,2.50
2018-12-18T14:06:04.144Z,2.60
2018-12-18T14:08:32.644Z,2.10
2018-12-18T14:11:01.007Z,2.63
2018-12-18T14:13:30.121Z,2.10
2018-12-18T14:15:58.413Z,2.77
2018-12-18T14:18:27.882Z,2.80
2018-12-18T14:20:56.222Z,2.93
2018-12-18T14:23:24.540Z,2.70
2018-12-18T14:25:52.939Z,2.57
2018-12-18T14:28:21.726Z,2.37
2018-12-18T14:30:50.141Z,2.60
2018-12-18T14:33:18.545Z,2.67
2018-12-18T14:35:47.374Z,2.33
2018-12-18T14:38:15.751Z,2.33
2018-12-18T14:40:44.063Z,2.03
2018-12-18T14:43:14.422Z,2.03
2018-12-18T14:45:43.744Z,2.00
2018-12-18T14:48:12.783Z,2.20
2018-12-18T14:50:41.639Z,2.33
2018-12-18T14:53:11.733Z,2.60
2018-12-18T14:55:40.119Z,2.80
2018-12-18T14:58:17.081Z,2.37
2018-12-18T15:00:45.490Z,2.50
2018-12-18T15:03:13.651Z,2.30
2018-12-18T15:05:41.890Z,2.50
2018-12-18T15:08:10.217Z,2.57
2018-12-18T15:10:38.605Z,2.93
2018-12-18T15:13:06.799Z,2.47
2018-12-18T15:15:35.089Z,2.67
2018-12-18T15:18:03.287Z,2.27
2018-12-18T15:20:31.898Z,2.80
2018-12-18T15:23:00.173Z,2.80
2018-12-18T15:25:28.693Z,2.47
2018-12-18T15:27:56.961Z,2.37
2018-12-18T15:30:26.052Z,3.13
2018-12-18T15:32:54.724Z,2.87
2018-12-18T15:35:23.580Z,2.50
2018-12-18T15:37:57.859Z,2.70
2018-12-18T15:40:26.577Z,2.80
2018-12-18T15:42:54.930Z,2.67
2018-12-18T15:45:23.514Z,2.43
2018-12-18T15:47:51.693Z,2.50
2018-12-18T15:50:20.709Z,2.37
2018-12-18T15:52:48.960Z,2.50
2018-12-18T15:55:17.259Z,2.50
2018-12-18T15:57:45.557Z,2.40
2018-12-18T16:00:13.994Z,2.73
2018-12-18T16:02:42.279Z,2.67
2018-12-18T16:05:10.529Z,2.70
2018-12-18T16:07:38.817Z,2.90
2018-12-18T16:10:07.627Z,2.90
2018-12-18T16:12:35.996Z,3.80
2018-12-18T16:15:04.862Z,3.80
2018-12-18T16:17:33.282Z,3.47
2018-12-18T16:20:01.527Z,3.57
2018-12-18T16:22:29.831Z,3.23
2018-12-18T16:24:58.212Z,3.10
2018-12-18T16:27:26.828Z,2.77
2018-12-18T16:29:55.403Z,2.70
2018-12-18T16:32:24.010Z,3.10
2018-12-18T16:34:52.618Z,3.30
2018-12-18T16:39:56.139Z,3.73
2018-12-18T16:42:24.523Z,3.57
2018-12-18T16:44:52.760Z,3.77
2018-12-18T16:47:21.076Z,3.77
2018-12-18T16:49:49.394Z,2.83
2018-12-18T16:52:17.647Z,3.30
2018-12-18T16:54:46.245Z,3.67
2018-12-18T16:57:14.681Z,3.53
2018-12-18T16:59:43.063Z,3.37
2018-12-18T17:02:11.442Z,3.23
2018-12-18T17:04:39.733Z,3.57
2018-12-18T17:07:08.011Z,3.50
2018-12-18T17:09:36.309Z,3.17
2018-12-18T17:12:04.549Z,3.30
2018-12-18T17:14:32.860Z,3.53
2018-12-18T17:17:01.206Z,3.43
2018-12-18T17:19:29.590Z,3.40
2018-12-18T17:21:57.861Z,3.73
2018-12-18T17:24:26.358Z,3.83
2018-12-18T17:26:54.764Z,3.87
2018-12-18T17:29:23.233Z,3.80
2018-12-18T17:31:51.722Z,3.80
2018-12-18T17:34:19.970Z,3.67
2018-12-18T17:36:48.899Z,4.00
2018-12-18T17:39:17.134Z,4.00
2018-12-18T17:41:45.530Z,5.27
2018-12-18T17:44:13.879Z,7.10
2018-12-18T17:46:42.524Z,3.90
2018-12-18T17:49:10.792Z,4.17
2018-12-18T17:51:39.372Z,4.00
2018-12-18T17:54:07.704Z,4.00
2018-12-18T17:56:36.127Z,4.03
2018-12-18T17:59:05.279Z,4.27
2018-12-18T18:01:33.825Z,4.50
2018-12-18T18:04:02.273Z,4.43
2018-12-18T18:06:30.793Z,4.20
2018-12-18T18:08:59.148Z,4.20
2018-12-18T18:11:28.354Z,4.93
2018-12-18T18:13:56.949Z,5.30
2018-12-18T18:16:25.211Z,5.07
2018-12-18T18:18:53.708Z,5.03
2018-12-18T18:21:22.746Z,4.97
2018-12-18T18:23:51.126Z,5.27
2018-12-18T18:26:20.871Z,5.20
2018-12-18T18:28:49.433Z,5.60
2018-12-18T18:31:17.966Z,6.13
2018-12-18T18:33:47.311Z,6.13
2018-12-18T18:36:15.915Z,5.23
2018-12-18T18:38:44.533Z,5.77
2018-12-18T18:41:12.951Z,6.13
2018-12-18T18:43:41.789Z,5.83
2018-12-18T18:46:10.320Z,5.57
2018-12-18T18:48:39.122Z,5.70
2018-12-18T18:51:07.651Z,6.00
2018-12-18T18:53:36.190Z,6.20
2018-12-18T18:56:04.850Z,6.73
2018-12-18T18:58:33.478Z,5.57
2018-12-18T19:01:02.036Z,6.37
2018-12-18T19:03:30.499Z,6.50
2018-12-18T19:05:59.175Z,6.10
2018-12-18T19:08:28.486Z,5.77
2018-12-18T19:10:56.953Z,5.83
2018-12-18T19:13:25.652Z,6.00
2018-12-18T19:15:54.358Z,7.53
2018-12-18T19:18:23.021Z,6.77
2018-12-18T19:20:51.671Z,6.97
2018-12-18T19:23:20.373Z,7.33
2018-12-18T19:25:48.997Z,6.30
2018-12-18T19:28:17.677Z,6.80
2018-12-18T19:30:46.649Z,6.87
2018-12-18T19:33:15.752Z,6.60
2018-12-18T19:35:44.314Z,6.90
2018-12-18T19:38:13.017Z,6.57
2018-12-18T19:40:41.653Z,6.40
2018-12-18T19:43:10.207Z,7.40
2018-12-18T19:45:39.596Z,6.70
2018-12-18T19:48:08.200Z,6.67
2018-12-18T19:50:37.496Z,6.30
2018-12-18T19:53:06.273Z,6.77
2018-12-18T19:55:35.005Z,6.53
2018-12-18T19:58:03.457Z,6.60
2018-12-18T20:00:33.079Z,7.37
2018-12-18T20:03:01.432Z,6.73
2018-12-18T20:05:30.600Z,7.07
2018-12-18T20:07:59.149Z,7.10
2018-12-18T20:10:27.609Z,6.93
2018-12-18T20:12:55.965Z,6.90
2018-12-18T20:15:24.859Z,6.60
2018-12-18T20:17:53.658Z,6.80
2018-12-18T20:20:22.202Z,7.37
2018-12-18T20:22:51.167Z,6.93
2018-12-18T20:25:19.698Z,7.17
2018-12-18T20:27:48.115Z,7.07
2018-12-18T20:30:16.590Z,6.80
2018-12-18T20:32:45.261Z,6.90
2018-12-18T20:35:13.848Z,8.00
2018-12-18T20:37:42.287Z,7.37
2018-12-18T20:40:10.991Z,7.43
2018-12-18T20:42:39.621Z,8.03
2018-12-18T20:45:08.336Z,8.07
2018-12-18T20:47:36.837Z,7.17
2018-12-18T20:50:05.564Z,7.80
2018-12-18T20:52:34.087Z,7.67
2018-12-18T20:55:02.747Z,6.80
2018-12-18T20:57:31.715Z,7.17
2018-12-18T21:00:00.859Z,7.00
2018-12-18T21:02:29.521Z,6.87
2018-12-18T21:04:57.906Z,7.23
2018-12-18T21:07:26.408Z,6.63
2018-12-18T21:09:54.980Z,6.27
2018-12-18T21:12:24.021Z,6.23
2018-12-18T21:14:53.657Z,6.27
2018-12-18T21:17:22.473Z,6.70
2018-12-18T21:19:52.418Z,6.57
2018-12-18T21:22:21.242Z,7.07
2018-12-18T21:24:50.027Z,6.67
2018-12-18T21:27:19.188Z,6.57
2018-12-18T21:29:47.582Z,6.20
2018-12-18T21:32:15.936Z,6.93
2018-12-18T21:34:44.573Z,6.77
2018-12-18T21:37:13.178Z,7.17
2018-12-18T21:39:42.452Z,6.20
2018-12-18T21:42:11.866Z,7.00
2018-12-18T21:44:40.653Z,6.73
2018-12-18T21:47:09.114Z,6.87
2018-12-18T21:49:37.799Z,6.23
2018-12-18T21:52:06.316Z,6.27
2018-12-18T21:54:34.810Z,6.07
2018-12-18T21:57:03.448Z,6.70
2018-12-18T21:59:31.935Z,6.37
2018-12-18T22:02:00.352Z,5.67
2018-12-18T22:04:28.704Z,5.73
2018-12-18T22:06:57.354Z,6.20
2018-12-18T22:09:26.009Z,6.00
2018-12-18T22:11:54.497Z,5.70
2018-12-18T22:14:22.956Z,5.83
2018-12-18T22:16:52.262Z,5.23
2018-12-18T22:19:20.809Z,5.63
2018-12-18T22:21:49.769Z,5.57
2018-12-18T22:24:18.349Z,5.50
2018-12-18T22:26:47.197Z,5.53
2018-12-18T22:29:15.564Z,4.77
2018-12-18T22:31:44.053Z,5.37
2018-12-18T22:34:12.481Z,4.80
2018-12-18T22:36:41.359Z,5.27
2018-12-18T22:39:10.007Z,4.70
2018-12-18T22:41:38.625Z,4.97
2018-12-18T22:44:07.179Z,5.17
2018-12-18T22:46:35.836Z,5.10
2018-12-18T22:49:04.327Z,5.10
2018-12-18T22:51:32.647Z,5.17
2018-12-18T22:54:01.429Z,4.77
2018-12-18T22:56:29.762Z,4.33
2018-12-18T22:58:58.627Z,4.90
2018-12-18T23:01:32.971Z,4.83
2018-12-18T23:04:01.282Z,4.30
2018-12-18T23:06:29.935Z,4.60
2018-12-18T23:08:59.961Z,4.80
2018-12-18T23:11:28.560Z,4.43
2018-12-18T23:13:56.950Z,4.60
2018-12-18T23:16:25.438Z,4.70
2018-12-18T23:18:53.845Z,4.30
2018-12-18T23:21:22.460Z,4.07
2018-12-18T23:23:50.910Z,4.13
2018-12-18T23:26:19.352Z,4.23
2018-12-18T23:28:49.816Z,4.20
2018-12-18T23:31:23.507Z,3.93
2018-12-18T23:33:51.828Z,4.30
2018-12-18T23:36:20.107Z,3.83
2018-12-18T23:38:48.906Z,4.07
2018-12-18T23:41:17.124Z,4.00
2018-12-18T23:43:45.518Z,4.20
2018-12-18T23:46:14.367Z,4.40
2018-12-18T23:48:43.099Z,3.80
2018-12-18T23:51:13.035Z,3.97
2018-12-18T23:53:41.569Z,3.63
2018-12-18T23:56:10.218Z,4.10
2018-12-18T23:58:38.725Z,3.70
